createdAt,value
2023-05-12T00:01:17.022Z,4.68
2023-05-12T00:03:43.755Z,4.57
2023-05-12T00:06:11.295Z,4.93
2023-05-12T00:08:38.118Z,4.60
2023-05-12T00:11:04.622Z,4.82
2023-05-12T00:13:31.137Z,7.65
2023-05-12T00:15:58.967Z,4.70
2023-05-12T00:18:28.229Z,5.15
2023-05-12T00:20:55.598Z,4.65
2023-05-12T00:23:22.921Z,4.65
2023-05-12T00:25:49.940Z,5.07
2023-05-12T00:28:17.778Z,5.55
2023-05-12T00:30:44.476Z,5.18
2023-05-12T00:33:11.090Z,4.97
2023-05-12T00:35:37.598Z,4.50
2023-05-12T00:38:04.133Z,4.47
2023-05-12T00:40:31.009Z,4.25
2023-05-12T00:42:57.621Z,3.80
2023-05-12T00:45:24.385Z,4.47
2023-05-12T00:47:52.300Z,4.03
2023-05-12T00:50:19.182Z,3.70
2023-05-12T00:52:47.127Z,4.80
2023-05-12T00:55:13.754Z,4.93
2023-05-12T00:57:41.704Z,4.28
2023-05-12T01:00:08.974Z,4.82
2023-05-12T01:02:37.716Z,4.32
2023-05-12T01:05:04.880Z,4.05
2023-05-12T01:07:33.103Z,4.43
2023-05-12T01:10:00.825Z,31.17
2023-05-12T01:12:32.128Z,3.90
2023-05-12T01:14:59.436Z,3.92
2023-05-12T01:17:36.085Z,3.70
2023-05-12T01:20:07.285Z,3.72
2023-05-12T01:22:35.854Z,3.70
2023-05-12T01:25:05.353Z,3.88
2023-05-12T01:27:33.490Z,4.32
2023-05-12T01:30:02.225Z,3.70
2023-05-12T01:32:32.609Z,4.25
2023-05-12T01:34:59.258Z,4.75
2023-05-12T01:37:26.934Z,4.18
2023-05-12T01:39:54.703Z,5.07
2023-05-12T01:42:21.490Z,4.28
2023-05-12T01:44:48.896Z,6.07
2023-05-12T01:47:16.004Z,3.92
2023-05-12T01:49:48.476Z,3.90
2023-05-12T01:52:16.190Z,3.63
2023-05-12T01:54:42.716Z,4.22
2023-05-12T01:57:10.912Z,3.45
2023-05-12T01:59:38.537Z,3.80
2023-05-12T02:02:06.461Z,3.55
2023-05-12T02:04:34.515Z,3.53
2023-05-12T02:07:01.853Z,3.50
2023-05-12T02:09:28.765Z,3.30
2023-05-12T02:11:59.641Z,2.70
2023-05-12T02:14:26.157Z,3.03
2023-05-12T02:16:55.608Z,4.88
2023-05-12T02:19:23.964Z,3.10
2023-05-12T02:21:50.535Z,3.20
2023-05-12T02:24:17.099Z,3.55
2023-05-12T02:26:44.516Z,3.03
2023-05-12T02:29:12.542Z,2.67
2023-05-12T02:31:39.161Z,3.00
2023-05-12T02:34:15.096Z,2.88
2023-05-12T02:36:41.721Z,2.60
2023-05-12T02:39:08.501Z,3.92
2023-05-12T02:41:35.613Z,2.75
2023-05-12T02:44:02.144Z,3.15
2023-05-12T02:46:28.701Z,3.40
2023-05-12T02:48:55.737Z,3.95
2023-05-12T02:51:22.192Z,3.22
2023-05-12T02:53:49.659Z,3.78
2023-05-12T02:56:17.537Z,3.35
2023-05-12T02:58:43.988Z,3.95
2023-05-12T03:01:11.848Z,4.88
2023-05-12T03:03:40.504Z,3.83
2023-05-12T03:06:07.780Z,4.18
2023-05-12T03:08:34.896Z,5.30
2023-05-12T03:11:02.080Z,5.50
2023-05-12T03:13:28.834Z,5.82
2023-05-12T03:15:55.680Z,5.28
2023-05-12T03:18:22.409Z,5.00
2023-05-12T03:20:50.961Z,5.82
2023-05-12T03:23:17.409Z,6.82
2023-05-12T03:25:43.961Z,6.90
2023-05-12T03:28:11.420Z,9.02
2023-05-12T03:30:38.281Z,6.38
2023-05-12T03:33:04.985Z,6.60
2023-05-12T03:35:31.783Z,9.32
2023-05-12T03:38:01.492Z,8.27
2023-05-12T03:40:28.584Z,9.15
2023-05-12T03:42:55.086Z,10.57
2023-05-12T03:45:21.883Z,9.35
2023-05-12T03:47:48.654Z,9.85
2023-05-12T03:50:15.551Z,12.98
2023-05-12T03:52:42.159Z,9.95
2023-05-12T03:55:09.154Z,11.55
2023-05-12T03:57:36.615Z,13.85
2023-05-12T04:00:05.135Z,16.80
2023-05-12T04:02:39.388Z,13.77
2023-05-12T04:05:08.584Z,19.65
2023-05-12T04:07:35.135Z,12.40
2023-05-12T04:10:01.992Z,15.57
2023-05-12T04:12:28.974Z,19.17
2023-05-12T04:14:55.843Z,16.08
2023-05-12T04:17:23.010Z,15.93
2023-05-12T04:19:49.528Z,22.17
2023-05-12T04:22:16.615Z,16.67
2023-05-12T04:24:43.147Z,18.88
2023-05-12T04:27:09.793Z,16.65
2023-05-12T04:29:36.965Z,20.25
2023-05-12T04:32:03.925Z,17.73
2023-05-12T04:34:30.652Z,19.67
2023-05-12T04:36:57.180Z,19.60
2023-05-12T04:39:23.725Z,16.95
2023-05-12T04:41:50.741Z,16.98
2023-05-12T04:44:18.352Z,19.73
2023-05-12T04:46:45.218Z,20.20
2023-05-12T04:49:11.725Z,22.90
2023-05-12T04:51:42.866Z,20.92
2023-05-12T04:54:10.368Z,20.67
2023-05-12T04:56:37.618Z,20.58
2023-05-12T04:59:04.781Z,20.17
2023-05-12T05:01:31.891Z,22.42
2023-05-12T05:03:58.607Z,23.83
2023-05-12T05:06:25.271Z,24.52
2023-05-12T05:08:53.116Z,23.98
2023-05-12T05:11:19.869Z,27.27
2023-05-12T05:13:46.380Z,23.60
2023-05-12T05:16:13.085Z,24.92
2023-05-12T05:18:42.490Z,22.42
2023-05-12T05:21:09.105Z,22.25
2023-05-12T05:23:36.298Z,24.35
2023-05-12T05:26:02.987Z,27.13
2023-05-12T05:28:29.515Z,24.08
2023-05-12T05:30:56.434Z,25.35
2023-05-12T05:33:23.130Z,27.67
2023-05-12T05:35:50.122Z,22.17
2023-05-12T05:38:16.810Z,24.55
2023-05-12T05:40:52.877Z,28.88
2023-05-12T05:43:21.265Z,24.50
2023-05-12T05:45:49.722Z,25.83
2023-05-12T05:48:16.552Z,25.10
2023-05-12T05:50:43.266Z,26.45
2023-05-12T05:53:09.904Z,29.90
2023-05-12T05:55:36.407Z,28.08
2023-05-12T05:58:02.975Z,27.58
2023-05-12T06:00:29.633Z,24.42
2023-05-12T06:02:56.385Z,25.23
2023-05-12T06:05:23.297Z,25.50
2023-05-12T06:07:49.919Z,26.70
2023-05-12T06:10:16.462Z,24.02
2023-05-12T06:12:43.255Z,28.65
2023-05-12T06:15:10.442Z,25.67
2023-05-12T06:17:37.041Z,26.55
2023-05-12T06:20:05.200Z,25.00
2023-05-12T06:22:31.813Z,23.95
2023-05-12T06:24:58.331Z,32.22
2023-05-12T06:27:24.898Z,29.75
2023-05-12T06:29:52.007Z,28.40
2023-05-12T06:32:18.903Z,29.73
2023-05-12T06:34:45.503Z,25.48
2023-05-12T06:37:12.150Z,29.73
2023-05-12T06:39:38.752Z,24.77
2023-05-12T06:42:06.459Z,25.88
2023-05-12T06:44:42.027Z,30.17
2023-05-12T06:47:09.158Z,24.45
2023-05-12T06:49:37.096Z,28.63
2023-05-12T06:52:04.786Z,28.75
2023-05-12T06:54:31.702Z,24.58
2023-05-12T06:56:58.524Z,28.17
2023-05-12T06:59:25.208Z,26.73
2023-05-12T07:01:51.813Z,25.65
2023-05-12T07:04:18.329Z,25.17
2023-05-12T07:06:44.822Z,28.33
2023-05-12T07:09:11.299Z,24.00
2023-05-12T07:11:38.060Z,23.27
2023-05-12T07:14:04.566Z,23.92
2023-05-12T07:16:31.080Z,27.42
2023-05-12T07:18:57.555Z,24.50
2023-05-12T07:21:24.428Z,23.73
2023-05-12T07:23:50.929Z,23.63
2023-05-12T07:26:18.547Z,22.17
2023-05-12T07:28:45.081Z,28.48
2023-05-12T07:31:11.817Z,26.73
2023-05-12T07:33:38.304Z,23.13
2023-05-12T07:36:05.031Z,23.73
2023-05-12T07:38:32.083Z,22.35
2023-05-12T07:41:00.054Z,23.35
2023-05-12T07:43:26.493Z,24.58
2023-05-12T07:45:54.574Z,18.77
2023-05-12T07:48:21.059Z,17.27
2023-05-12T07:50:47.666Z,21.95
2023-05-12T07:53:14.210Z,17.45
2023-05-12T07:55:41.185Z,17.15
2023-05-12T07:58:07.688Z,20.83
2023-05-12T08:00:34.384Z,13.55
2023-05-12T08:03:00.975Z,15.45
2023-05-12T08:05:27.634Z,19.75
2023-05-12T08:07:54.096Z,18.60
2023-05-12T08:10:20.649Z,14.40
2023-05-12T08:12:47.120Z,17.08
2023-05-12T08:15:13.667Z,14.90
2023-05-12T08:17:40.206Z,13.55
2023-05-12T08:20:07.286Z,14.38
2023-05-12T08:22:33.769Z,14.98
2023-05-12T08:25:00.321Z,14.57
2023-05-12T08:27:26.930Z,15.30
2023-05-12T08:29:53.455Z,13.23
2023-05-12T08:32:19.979Z,14.85
2023-05-12T08:34:46.661Z,14.80
2023-05-12T08:37:13.328Z,15.88
2023-05-12T08:39:39.909Z,13.85
2023-05-12T08:42:30.193Z,12.85
2023-05-12T08:44:59.222Z,14.82
2023-05-12T08:47:26.670Z,13.85
2023-05-12T08:50:01.157Z,11.40
2023-05-12T08:52:29.904Z,11.95
2023-05-12T08:54:56.989Z,13.25
2023-05-12T08:57:23.997Z,11.50
2023-05-12T08:59:54.500Z,12.27
2023-05-12T09:02:25.218Z,11.97
2023-05-12T09:04:52.525Z,10.35
2023-05-12T09:07:19.863Z,10.50
2023-05-12T09:09:52.138Z,11.60
2023-05-12T09:12:19.514Z,10.25
2023-05-12T09:14:51.961Z,11.73
2023-05-12T09:17:18.723Z,10.05
2023-05-12T09:19:45.143Z,9.82
2023-05-12T09:22:14.812Z,9.05
2023-05-12T09:24:41.606Z,8.77
2023-05-12T09:27:08.158Z,8.23
2023-05-12T09:29:45.159Z,8.45
2023-05-12T09:32:18.248Z,8.00
2023-05-12T09:34:44.747Z,7.45
2023-05-12T09:37:12.648Z,6.60
2023-05-12T09:39:40.462Z,6.22
2023-05-12T09:42:12.434Z,6.40
2023-05-12T09:44:39.805Z,6.53
2023-05-12T09:47:07.196Z,7.28
2023-05-12T09:49:33.625Z,6.80
2023-05-12T09:52:00.203Z,6.68
2023-05-12T09:54:28.299Z,7.13
2023-05-12T09:56:59.923Z,7.60
2023-05-12T09:59:34.494Z,7.43
2023-05-12T10:02:02.987Z,7.07
2023-05-12T10:04:45.949Z,6.60
2023-05-12T10:07:14.339Z,6.88
2023-05-12T10:09:42.557Z,6.88
2023-05-12T10:12:10.179Z,6.50
2023-05-12T10:14:40.972Z,5.28
2023-05-12T10:17:09.383Z,5.88
2023-05-12T10:19:36.213Z,9.32
2023-05-12T10:22:03.854Z,5.72
2023-05-12T10:24:30.313Z,5.75
2023-05-12T10:26:57.483Z,9.55
2023-05-12T10:29:32.826Z,5.93
2023-05-12T10:32:01.184Z,5.85
2023-05-12T10:34:33.937Z,4.88
2023-05-12T10:37:00.843Z,6.18
2023-05-12T10:39:32.787Z,4.90
2023-05-12T10:42:05.832Z,5.15
2023-05-12T10:44:32.306Z,5.15
2023-05-12T10:47:02.159Z,5.10
2023-05-12T10:49:39.390Z,4.28
2023-05-12T10:52:07.639Z,4.28
2023-05-12T10:54:44.355Z,4.05
2023-05-12T10:57:18.843Z,5.10
2023-05-12T10:59:57.637Z,4.35
2023-05-12T11:02:32.033Z,4.10
2023-05-12T11:05:07.023Z,4.10
2023-05-12T11:07:35.411Z,6.75
2023-05-12T11:10:05.287Z,3.28
2023-05-12T11:12:33.522Z,3.60
2023-05-12T11:15:01.608Z,4.03
2023-05-12T11:17:28.847Z,3.20
2023-05-12T11:19:55.747Z,3.35
2023-05-12T11:22:23.628Z,3.53
2023-05-12T11:24:51.285Z,3.05
2023-05-12T11:27:19.841Z,3.15
2023-05-12T11:29:59.580Z,3.15
2023-05-12T11:32:26.768Z,5.78
2023-05-12T11:34:53.385Z,3.17
2023-05-12T11:37:27.192Z,2.90
2023-05-12T11:39:53.849Z,3.05
2023-05-12T11:42:22.783Z,3.45
2023-05-12T11:44:50.885Z,3.08
2023-05-12T11:47:19.809Z,3.28
2023-05-12T11:49:48.582Z,2.40
2023-05-12T11:52:15.829Z,3.55
2023-05-12T11:55:11.543Z,3.65
2023-05-12T11:57:38.185Z,3.25
2023-05-12T12:00:07.638Z,3.33
2023-05-12T12:02:36.715Z,4.05
2023-05-12T12:05:03.526Z,4.45
2023-05-12T12:07:34.978Z,3.05
2023-05-12T12:10:14.704Z,3.58
2023-05-12T12:12:42.145Z,3.85
2023-05-12T12:15:09.999Z,3.30
2023-05-12T12:17:36.728Z,3.30
2023-05-12T12:20:03.486Z,3.75
2023-05-12T12:22:34.168Z,4.05
2023-05-12T12:25:02.304Z,3.35
2023-05-12T12:27:28.754Z,11.23
2023-05-12T12:29:55.354Z,4.57
2023-05-12T12:32:21.802Z,3.83
2023-05-12T12:34:49.035Z,3.78
2023-05-12T12:37:16.144Z,3.33
2023-05-12T12:39:42.804Z,3.80
2023-05-12T12:42:09.551Z,3.58
2023-05-12T12:44:36.045Z,3.15
2023-05-12T12:47:02.608Z,3.28
2023-05-12T12:49:29.039Z,3.80
2023-05-12T12:51:55.959Z,3.25
2023-05-12T12:54:22.550Z,3.83
2023-05-12T12:56:49.103Z,3.55
2023-05-12T12:59:15.556Z,3.70
2023-05-12T13:01:42.865Z,3.63
2023-05-12T13:04:09.483Z,4.18
2023-05-12T13:06:36.049Z,3.80
2023-05-12T13:09:03.865Z,3.83
2023-05-12T13:11:30.424Z,3.90
2023-05-12T13:13:56.893Z,4.45
2023-05-12T13:16:26.338Z,4.15
2023-05-12T13:18:52.877Z,4.78
2023-05-12T13:21:19.439Z,3.95
2023-05-12T13:23:45.921Z,3.75
2023-05-12T13:26:12.417Z,5.35
2023-05-12T13:28:38.894Z,5.90
2023-05-12T13:31:06.086Z,4.20
2023-05-12T13:33:32.764Z,4.55
2023-05-12T13:35:59.349Z,4.53
2023-05-12T13:38:26.294Z,4.40
2023-05-12T13:40:52.974Z,6.95
2023-05-12T13:43:19.467Z,6.30
2023-05-12T13:45:45.976Z,4.10
2023-05-12T13:48:12.547Z,8.25
2023-05-12T13:50:39.209Z,4.45
2023-05-12T13:53:06.521Z,4.60
2023-05-12T13:55:34.271Z,5.05
2023-05-12T13:58:00.920Z,5.45
2023-05-12T14:00:29.717Z,4.05
2023-05-12T14:02:57.735Z,4.03
2023-05-12T14:05:24.543Z,4.35
2023-05-12T14:07:51.254Z,7.53
2023-05-12T14:10:18.565Z,4.00
2023-05-12T14:12:45.137Z,4.68
2023-05-12T14:17:46.410Z,4.88
2023-05-12T14:20:13.081Z,5.00
2023-05-12T14:22:39.629Z,3.95
2023-05-12T14:25:06.445Z,3.85
2023-05-12T14:27:32.876Z,3.83
2023-05-12T14:29:59.341Z,4.60
2023-05-12T14:32:25.838Z,5.40
2023-05-12T14:34:52.358Z,6.75
2023-05-12T14:37:18.876Z,5.88
2023-05-12T14:39:45.425Z,5.40
2023-05-12T14:42:11.901Z,4.50
2023-05-12T14:44:38.339Z,4.90
2023-05-12T14:47:05.923Z,4.72
2023-05-12T14:49:33.941Z,5.07
2023-05-12T14:52:00.344Z,6.40
2023-05-12T14:54:26.855Z,7.05
2023-05-12T14:56:53.395Z,4.13
2023-05-12T14:59:19.826Z,5.15
2023-05-12T15:01:46.477Z,4.80
2023-05-12T15:04:13.266Z,3.78
2023-05-12T15:06:40.064Z,4.43
2023-05-12T15:09:07.210Z,4.32
2023-05-12T15:11:33.763Z,3.97
2023-05-12T15:14:00.258Z,4.32
2023-05-12T15:16:27.994Z,4.53
2023-05-12T15:18:54.688Z,40.42
2023-05-12T15:21:21.264Z,4.68
2023-05-12T15:23:47.803Z,4.38
2023-05-12T15:26:31.444Z,5.70
2023-05-12T15:28:59.858Z,4.20
2023-05-12T15:31:28.991Z,8.85
2023-05-12T15:33:59.268Z,4.38
2023-05-12T15:36:25.913Z,3.92
2023-05-12T15:38:52.395Z,4.90
2023-05-12T15:41:18.868Z,7.32
2023-05-12T15:43:45.336Z,5.18
2023-05-12T15:46:11.939Z,9.57
2023-05-12T15:48:39.321Z,5.65
2023-05-12T15:51:07.818Z,5.55
2023-05-12T15:53:34.501Z,4.85
2023-05-12T15:56:05.191Z,5.13
2023-05-12T15:58:32.073Z,5.95
2023-05-12T16:00:59.022Z,7.28
2023-05-12T16:03:25.653Z,5.70
2023-05-12T16:05:52.515Z,5.90
2023-05-12T16:08:19.103Z,5.75
2023-05-12T16:10:45.716Z,6.10
2023-05-12T16:13:12.179Z,5.75
2023-05-12T16:15:38.618Z,5.50
2023-05-12T16:18:07.513Z,9.75
2023-05-12T16:20:35.814Z,5.37
2023-05-12T16:23:02.601Z,5.18
2023-05-12T16:25:29.123Z,5.75
2023-05-12T16:27:55.914Z,6.05
2023-05-12T16:30:22.701Z,5.97
2023-05-12T16:32:49.273Z,6.75
2023-05-12T16:35:15.905Z,6.45
2023-05-12T16:37:42.685Z,5.43
2023-05-12T16:40:09.686Z,5.32
2023-05-12T16:42:37.141Z,4.88
2023-05-12T16:45:03.751Z,5.30
2023-05-12T16:47:30.247Z,5.70
2023-05-12T16:49:58.093Z,5.60
2023-05-12T16:52:25.499Z,5.53
2023-05-12T16:54:53.111Z,6.72
2023-05-12T16:57:20.133Z,6.30
2023-05-12T16:59:48.264Z,6.05
2023-05-12T17:02:15.085Z,6.35
2023-05-12T17:04:41.709Z,7.07
2023-05-12T17:07:08.252Z,7.47
2023-05-12T17:09:34.828Z,9.18
2023-05-12T17:12:01.591Z,7.18
2023-05-12T17:14:28.220Z,7.30
2023-05-12T17:16:54.838Z,6.88
2023-05-12T17:19:22.089Z,10.93
2023-05-12T17:21:48.879Z,7.18
2023-05-12T17:24:15.456Z,6.50
2023-05-12T17:26:42.132Z,6.38
2023-05-12T17:29:08.632Z,6.47
2023-05-12T17:31:35.239Z,6.47
2023-05-12T17:34:01.782Z,6.13
2023-05-12T17:36:28.879Z,6.53
2023-05-12T17:38:55.441Z,8.57
2023-05-12T17:41:21.916Z,7.07
2023-05-12T17:43:48.464Z,9.25
2023-05-12T17:46:14.986Z,8.25
2023-05-12T17:48:41.505Z,6.50
2023-05-12T17:51:08.119Z,6.35
2023-05-12T17:53:34.987Z,6.72
2023-05-12T17:56:01.633Z,6.82
2023-05-12T17:58:28.096Z,6.60
2023-05-12T18:00:55.644Z,7.00
2023-05-12T18:03:25.098Z,7.40
2023-05-12T18:05:53.273Z,11.38
2023-05-12T18:08:20.694Z,6.72
2023-05-12T18:10:47.479Z,7.07
2023-05-12T18:13:15.360Z,5.50
2023-05-12T18:15:42.448Z,7.40
2023-05-12T18:18:10.075Z,5.50
2023-05-12T18:20:37.236Z,10.15
2023-05-12T18:23:03.828Z,5.05
2023-05-12T18:25:30.280Z,6.85
2023-05-12T18:27:56.757Z,5.20
2023-05-12T18:30:23.312Z,4.70
2023-05-12T18:32:50.361Z,5.18
2023-05-12T18:35:16.941Z,5.85
2023-05-12T18:37:43.828Z,4.07
2023-05-12T18:40:11.175Z,4.43
2023-05-12T18:42:38.338Z,5.28
2023-05-12T18:45:05.468Z,4.50
2023-05-12T18:47:32.318Z,4.30
2023-05-12T18:49:59.082Z,4.25
2023-05-12T18:52:25.683Z,4.72
2023-05-12T18:54:52.078Z,4.57
2023-05-12T18:57:18.822Z,4.15
2023-05-12T18:59:45.473Z,7.55
2023-05-12T19:02:12.076Z,4.93
2023-05-12T19:04:39.103Z,5.38
2023-05-12T19:07:09.248Z,5.68
2023-05-12T19:09:36.654Z,7.35
2023-05-12T19:12:05.711Z,6.22
2023-05-12T19:14:32.293Z,6.00
2023-05-12T19:16:58.808Z,6.13
2023-05-12T19:19:25.343Z,5.97
2023-05-12T19:21:52.477Z,5.82
2023-05-12T19:24:19.328Z,6.03
2023-05-12T19:26:45.711Z,6.55
2023-05-12T19:29:12.212Z,13.32
2023-05-12T19:31:38.791Z,6.68
2023-05-12T19:34:05.408Z,7.05
2023-05-12T19:36:31.965Z,6.82
2023-05-12T19:39:00.232Z,6.40
2023-05-12T19:41:27.811Z,6.88
2023-05-12T19:43:55.326Z,6.15
2023-05-12T19:46:22.353Z,6.80
2023-05-12T19:48:48.989Z,7.95
2023-05-12T19:51:15.449Z,6.88
2023-05-12T19:53:43.595Z,9.48
2023-05-12T19:56:10.133Z,7.82
2023-05-12T19:58:36.584Z,5.53
2023-05-12T20:01:03.086Z,6.13
2023-05-12T20:03:29.664Z,5.57
2023-05-12T20:05:56.264Z,7.47
2023-05-12T20:08:22.696Z,7.88
2023-05-12T20:10:49.148Z,6.72
2023-05-12T20:13:15.598Z,6.18
2023-05-12T20:15:43.948Z,7.20
2023-05-12T20:18:12.567Z,6.53
2023-05-12T20:20:39.095Z,7.07
2023-05-12T20:23:05.713Z,6.75
2023-05-12T20:25:33.153Z,7.75
2023-05-12T20:27:59.848Z,6.15
2023-05-12T20:30:26.768Z,6.15
2023-05-12T20:32:53.437Z,12.82
2023-05-12T20:35:20.431Z,7.13
2023-05-12T20:37:47.280Z,7.97
2023-05-12T20:40:13.889Z,10.70
2023-05-12T20:42:40.483Z,6.65
2023-05-12T20:45:07.586Z,7.97
2023-05-12T20:47:34.818Z,8.95
2023-05-12T20:50:05.472Z,7.25
2023-05-12T20:52:33.535Z,7.65
2023-05-12T20:55:00.449Z,7.95
2023-05-12T20:57:27.215Z,8.02
2023-05-12T20:59:56.549Z,8.30
2023-05-12T21:02:27.635Z,8.55
2023-05-12T21:04:54.839Z,11.35
2023-05-12T21:07:21.256Z,7.50
2023-05-12T21:09:47.863Z,8.90
2023-05-12T21:12:14.418Z,8.35
2023-05-12T21:14:42.554Z,9.40
2023-05-12T21:17:10.383Z,14.20
2023-05-12T21:19:37.981Z,8.43
2023-05-12T21:22:05.815Z,11.63
2023-05-12T21:24:33.119Z,10.20
2023-05-12T21:27:03.653Z,8.75
2023-05-12T21:29:32.294Z,9.05
2023-05-12T21:31:59.445Z,8.27
2023-05-12T21:34:26.108Z,8.90
2023-05-12T21:36:52.892Z,14.48
2023-05-12T21:39:19.313Z,9.20
2023-05-12T21:41:45.971Z,8.65
2023-05-12T21:44:12.694Z,12.90
2023-05-12T21:46:39.187Z,8.40
2023-05-12T21:49:05.720Z,8.10
2023-05-12T21:51:33.158Z,8.77
2023-05-12T21:54:00.044Z,8.25
2023-05-12T21:56:26.787Z,11.27
2023-05-12T21:58:53.285Z,8.05
2023-05-12T22:01:19.830Z,8.75
2023-05-12T22:03:46.417Z,11.35
2023-05-12T22:06:12.970Z,8.40
2023-05-12T22:08:39.512Z,8.25
2023-05-12T22:11:06.100Z,10.45
2023-05-12T22:13:32.573Z,11.45
2023-05-12T22:15:59.950Z,8.38
2023-05-12T22:18:26.447Z,9.20
2023-05-12T22:20:52.929Z,10.18
2023-05-12T22:23:19.329Z,9.02
2023-05-12T22:25:45.873Z,9.23
2023-05-12T22:28:12.299Z,14.18
2023-05-12T22:30:38.726Z,9.45
2023-05-12T22:33:05.271Z,8.25
2023-05-12T22:35:31.706Z,7.78
2023-05-12T22:37:58.217Z,7.97
2023-05-12T22:40:26.923Z,7.32
2023-05-12T22:42:53.430Z,7.25
2023-05-12T22:45:20.037Z,7.85
2023-05-12T22:47:46.677Z,7.28
2023-05-12T22:50:13.358Z,8.45
2023-05-12T22:52:39.917Z,8.23
2023-05-12T22:55:06.861Z,7.18
2023-05-12T22:57:33.354Z,7.03
2023-05-12T23:00:00.243Z,7.00
2023-05-12T23:02:26.759Z,8.68
2023-05-12T23:04:53.236Z,8.57
2023-05-12T23:07:19.637Z,7.00
2023-05-12T23:09:46.148Z,6.85
2023-05-12T23:12:12.617Z,6.70
2023-05-12T23:14:39.099Z,6.00
2023-05-12T23:17:05.877Z,6.63
2023-05-12T23:19:32.420Z,10.65
2023-05-12T23:21:58.947Z,7.03
2023-05-12T23:24:25.489Z,7.13
2023-05-12T23:26:52.439Z,13.50
2023-05-12T23:29:18.952Z,7.50
2023-05-12T23:31:45.512Z,9.05
2023-05-12T23:34:12.419Z,6.43
2023-05-12T23:36:38.955Z,7.50
2023-05-12T23:39:05.477Z,6.95
2023-05-12T23:41:33.870Z,6.78
2023-05-12T23:44:00.340Z,6.25
2023-05-12T23:46:26.973Z,6.65
2023-05-12T23:48:55.567Z,6.00
2023-05-12T23:51:22.902Z,5.25
2023-05-12T23:53:49.423Z,7.60
2023-05-12T23:56:15.880Z,6.45
2023-05-12T23:58:42.501Z,11.00
